createdAt,value
2022-09-21T00:01:09.624Z,4.60
2022-09-21T00:03:37.035Z,4.77
2022-09-21T00:06:11.756Z,5.70
2022-09-21T00:08:38.345Z,5.80
2022-09-21T00:11:05.676Z,5.60
2022-09-21T00:13:33.876Z,5.37
2022-09-21T00:16:01.322Z,5.23
2022-09-21T00:18:27.985Z,5.13
2022-09-21T00:20:54.453Z,6.00
2022-09-21T00:23:21.195Z,5.17
2022-09-21T00:25:47.689Z,5.60
2022-09-21T00:28:14.205Z,4.83
2022-09-21T00:30:41.829Z,5.87
2022-09-21T00:33:08.516Z,5.60
2022-09-21T00:35:35.130Z,5.67
2022-09-21T00:38:03.307Z,5.90
2022-09-21T00:40:30.393Z,5.93
2022-09-21T00:43:14.252Z,6.50
2022-09-21T00:45:41.255Z,6.57
2022-09-21T00:48:07.809Z,6.70
2022-09-21T00:50:36.097Z,5.80
2022-09-21T00:53:04.342Z,6.73
2022-09-21T00:55:45.465Z,5.73
2022-09-21T00:58:18.025Z,6.07
2022-09-21T01:00:44.652Z,5.47
2022-09-21T01:03:12.365Z,5.60
2022-09-21T01:05:38.841Z,5.10
2022-09-21T01:08:07.341Z,6.40
2022-09-21T01:11:07.667Z,6.30
2022-09-21T01:14:02.185Z,6.10
2022-09-21T01:16:42.902Z,6.70
2022-09-21T01:19:30.535Z,6.10
2022-09-21T01:22:07.348Z,6.13
2022-09-21T01:25:01.630Z,5.80
2022-09-21T01:27:52.667Z,7.20
2022-09-21T01:30:20.654Z,6.63
2022-09-21T01:33:07.477Z,5.80
2022-09-21T01:35:38.016Z,5.03
2022-09-21T01:38:11.616Z,4.97
2022-09-21T01:40:50.286Z,5.07
2022-09-21T01:43:40.946Z,5.27
2022-09-21T01:46:13.236Z,6.27
2022-09-21T01:48:42.377Z,6.40
2022-09-21T01:51:11.729Z,5.47
2022-09-21T01:53:41.633Z,5.93
2022-09-21T01:56:22.249Z,7.30
2022-09-21T01:58:54.418Z,6.60
2022-09-21T02:01:23.326Z,6.73
2022-09-21T02:03:53.262Z,5.60
2022-09-21T02:06:19.901Z,5.60
2022-09-21T02:08:47.104Z,5.73
2022-09-21T02:11:14.008Z,5.13
2022-09-21T02:13:44.820Z,5.50
2022-09-21T02:16:33.731Z,4.80
2022-09-21T02:19:22.062Z,4.90
2022-09-21T02:22:03.745Z,5.27
2022-09-21T02:24:43.713Z,5.00
2022-09-21T02:27:19.794Z,4.80
2022-09-21T02:29:55.497Z,5.60
2022-09-21T02:32:51.433Z,5.17
2022-09-21T02:35:54.435Z,5.87
2022-09-21T02:38:33.082Z,4.77
2022-09-21T02:41:16.887Z,5.43
2022-09-21T02:43:56.196Z,5.10
2022-09-21T02:46:27.440Z,5.03
2022-09-21T02:48:57.919Z,5.70
2022-09-21T02:51:41.661Z,5.23
2022-09-21T02:54:11.591Z,5.23
2022-09-21T02:56:38.978Z,5.10
2022-09-21T02:59:06.305Z,4.93
2022-09-21T03:01:33.757Z,5.93
2022-09-21T03:04:00.404Z,6.10
2022-09-21T03:06:26.980Z,5.73
2022-09-21T03:08:53.599Z,5.20
2022-09-21T03:11:20.454Z,5.40
2022-09-21T03:13:47.027Z,5.23
2022-09-21T03:16:13.702Z,5.20
2022-09-21T03:18:44.399Z,5.47
2022-09-21T03:21:14.012Z,5.47
2022-09-21T03:23:40.742Z,6.20
2022-09-21T03:26:07.233Z,5.80
2022-09-21T03:28:33.731Z,6.40
2022-09-21T03:31:00.596Z,5.20
2022-09-21T03:33:27.326Z,5.80
2022-09-21T03:35:54.052Z,5.20
2022-09-21T03:38:21.614Z,6.07
2022-09-21T03:40:49.021Z,5.07
2022-09-21T03:43:16.839Z,5.17
2022-09-21T03:45:43.766Z,5.47
2022-09-21T03:48:11.583Z,5.83
2022-09-21T03:50:38.754Z,5.60
2022-09-21T03:53:05.753Z,5.20
2022-09-21T03:55:33.147Z,5.63
2022-09-21T03:57:59.640Z,5.80
2022-09-21T04:00:26.188Z,7.17
2022-09-21T04:02:52.718Z,6.50
2022-09-21T04:05:19.394Z,6.33
2022-09-21T04:07:45.941Z,6.90
2022-09-21T04:10:15.337Z,6.60
2022-09-21T04:12:43.343Z,6.80
2022-09-21T04:15:14.452Z,6.10
2022-09-21T04:17:41.547Z,6.30
2022-09-21T04:20:08.954Z,6.57
2022-09-21T04:22:39.964Z,6.73
2022-09-21T04:25:10.360Z,6.60
2022-09-21T04:27:37.067Z,7.17
2022-09-21T04:30:04.986Z,6.80
2022-09-21T04:32:31.576Z,6.80
2022-09-21T04:34:58.240Z,6.60
2022-09-21T04:37:24.778Z,7.63
2022-09-21T04:39:51.477Z,7.47
2022-09-21T04:42:17.916Z,8.70
2022-09-21T04:44:44.535Z,8.73
2022-09-21T04:47:11.143Z,7.43
2022-09-21T04:49:38.499Z,5.93
2022-09-21T04:52:05.896Z,7.70
2022-09-21T04:54:32.411Z,7.00
2022-09-21T04:56:59.019Z,6.90
2022-09-21T04:59:25.595Z,8.20
2022-09-21T05:01:52.120Z,7.50
2022-09-21T05:04:18.641Z,6.20
2022-09-21T05:06:45.177Z,6.17
2022-09-21T05:09:30.537Z,6.60
2022-09-21T05:11:57.090Z,8.30
2022-09-21T05:14:23.873Z,9.67
2022-09-21T05:16:50.448Z,11.10
2022-09-21T05:19:17.397Z,10.07
2022-09-21T05:21:43.861Z,11.50
2022-09-21T05:24:10.620Z,13.50
2022-09-21T05:26:37.495Z,13.50
2022-09-21T05:29:04.860Z,12.00
2022-09-21T05:32:13.622Z,9.23
2022-09-21T05:35:11.378Z,9.93
2022-09-21T05:37:54.156Z,8.67
2022-09-21T05:40:21.201Z,9.33
2022-09-21T05:42:48.092Z,13.83
2022-09-21T05:45:16.283Z,10.77
2022-09-21T05:48:01.081Z,8.47
2022-09-21T05:51:02.337Z,10.57
2022-09-21T05:53:57.073Z,10.67
2022-09-21T05:56:38.495Z,10.30
2022-09-21T05:59:35.296Z,9.90
2022-09-21T06:02:07.195Z,8.40
2022-09-21T06:04:34.107Z,10.40
2022-09-21T06:07:00.890Z,9.17
2022-09-21T06:09:27.964Z,10.80
2022-09-21T06:11:54.518Z,10.40
2022-09-21T06:14:25.483Z,9.10
2022-09-21T06:16:52.675Z,9.07
2022-09-21T06:19:19.300Z,9.27
2022-09-21T06:21:45.794Z,8.20
2022-09-21T06:24:12.478Z,8.67
2022-09-21T06:26:38.954Z,9.27
2022-09-21T06:29:05.429Z,8.73
2022-09-21T06:31:32.614Z,8.20
2022-09-21T06:33:59.225Z,10.60
2022-09-21T06:36:25.733Z,10.10
2022-09-21T06:38:52.252Z,9.43
2022-09-21T06:41:21.395Z,9.27
2022-09-21T06:43:48.268Z,9.27
2022-09-21T06:46:14.918Z,9.13
2022-09-21T06:48:41.468Z,10.07
2022-09-21T06:51:08.062Z,8.77
2022-09-21T06:53:34.987Z,8.50
2022-09-21T06:56:08.960Z,8.50
2022-09-21T06:58:37.569Z,8.50
2022-09-21T07:01:08.899Z,8.00
2022-09-21T07:03:35.871Z,8.67
2022-09-21T07:06:02.598Z,7.53
2022-09-21T07:11:16.198Z,7.57
2022-09-21T07:13:42.716Z,6.47
2022-09-21T07:16:10.094Z,7.33
2022-09-21T07:18:43.494Z,7.33
2022-09-21T07:21:11.772Z,6.30
2022-09-21T07:23:38.398Z,7.37
2022-09-21T07:26:11.199Z,6.60
2022-09-21T07:28:38.029Z,6.93
2022-09-21T07:31:10.135Z,7.60
2022-09-21T07:33:37.440Z,8.07
2022-09-21T07:36:10.191Z,8.37
2022-09-21T07:38:39.770Z,7.93
2022-09-21T07:41:07.913Z,7.10
2022-09-21T07:43:34.759Z,7.47
2022-09-21T07:46:42.970Z,8.40
2022-09-21T07:49:55.516Z,8.80
2022-09-21T07:52:22.125Z,7.67
2022-09-21T07:54:48.896Z,7.83
2022-09-21T07:57:34.004Z,7.70
2022-09-21T08:00:00.645Z,8.33
2022-09-21T08:02:27.271Z,7.87
2022-09-21T08:04:54.911Z,7.30
2022-09-21T08:07:21.376Z,8.50
2022-09-21T08:09:49.471Z,9.00
2022-09-21T08:12:18.573Z,8.17
2022-09-21T08:14:45.698Z,8.67
2022-09-21T08:17:12.239Z,7.07
2022-09-21T08:19:39.038Z,6.93
2022-09-21T08:22:06.380Z,7.67
2022-09-21T08:24:33.280Z,5.77
2022-09-21T08:27:00.078Z,6.93
2022-09-21T08:29:26.901Z,6.57
2022-09-21T08:31:53.685Z,6.97
2022-09-21T08:34:20.734Z,6.83
2022-09-21T08:36:49.700Z,6.53
2022-09-21T08:39:19.746Z,7.60
2022-09-21T08:42:01.418Z,6.20
2022-09-21T08:44:44.660Z,8.33
2022-09-21T08:47:46.859Z,5.83
2022-09-21T08:50:36.177Z,6.30
2022-09-21T08:53:15.485Z,6.13
2022-09-21T08:55:42.159Z,5.63
2022-09-21T08:58:26.322Z,5.17
2022-09-21T09:01:19.512Z,4.73
2022-09-21T09:04:07.942Z,4.20
2022-09-21T09:06:51.255Z,4.40
2022-09-21T09:09:39.220Z,4.13
2022-09-21T09:12:25.751Z,4.03
2022-09-21T09:15:04.043Z,3.90
2022-09-21T09:17:30.648Z,4.07
2022-09-21T09:20:04.379Z,3.40
2022-09-21T09:22:36.802Z,4.20
2022-09-21T09:25:16.711Z,3.80
2022-09-21T09:27:44.890Z,3.77
2022-09-21T09:30:25.449Z,3.33
2022-09-21T09:33:00.313Z,3.03
2022-09-21T09:35:30.591Z,3.90
2022-09-21T09:38:10.179Z,3.60
2022-09-21T09:40:52.227Z,4.30
2022-09-21T09:44:02.444Z,3.23
2022-09-21T09:47:08.159Z,3.43
2022-09-21T09:49:53.919Z,3.10
2022-09-21T09:52:20.576Z,2.97
2022-09-21T09:54:48.416Z,2.53
2022-09-21T09:57:15.558Z,2.67
2022-09-21T09:59:48.438Z,2.33
2022-09-21T10:02:25.714Z,2.90
2022-09-21T10:05:05.866Z,2.77
2022-09-21T10:07:45.162Z,3.80
2022-09-21T10:10:32.877Z,2.70
2022-09-21T10:13:14.701Z,2.70
2022-09-21T10:16:01.682Z,2.60
2022-09-21T10:18:37.382Z,3.00
2022-09-21T10:21:07.310Z,2.93
2022-09-21T10:23:35.754Z,3.03
2022-09-21T10:26:08.652Z,2.93
2022-09-21T10:28:36.146Z,2.90
2022-09-21T10:31:18.078Z,2.70
2022-09-21T10:33:54.730Z,2.57
2022-09-21T10:36:39.894Z,2.60
2022-09-21T10:39:21.599Z,2.47
2022-09-21T10:42:15.065Z,2.00
2022-09-21T10:44:43.824Z,1.90
2022-09-21T10:47:22.670Z,2.20
2022-09-21T10:49:55.164Z,1.70
2022-09-21T10:52:40.861Z,1.73
2022-09-21T10:55:15.603Z,1.67
2022-09-21T10:57:43.238Z,1.90
2022-09-21T11:00:22.443Z,1.80
2022-09-21T11:02:50.769Z,2.17
2022-09-21T11:05:25.830Z,2.20
2022-09-21T11:07:58.624Z,2.40
2022-09-21T11:10:34.657Z,2.17
2022-09-21T11:13:36.695Z,1.60
2022-09-21T11:16:21.565Z,1.70
2022-09-21T11:18:58.794Z,1.63
2022-09-21T11:21:36.472Z,1.70
2022-09-21T11:24:16.726Z,1.60
2022-09-21T11:26:47.021Z,1.90
2022-09-21T11:29:19.433Z,1.50
2022-09-21T11:31:55.558Z,1.90
2022-09-21T11:34:33.795Z,1.70
2022-09-21T11:37:12.389Z,2.17
2022-09-21T11:39:51.249Z,2.40
2022-09-21T11:42:20.701Z,2.30
2022-09-21T11:45:11.148Z,2.00
2022-09-21T11:47:57.035Z,2.60
2022-09-21T11:50:30.688Z,2.10
2022-09-21T11:53:11.177Z,2.10
2022-09-21T11:55:59.587Z,1.97
2022-09-21T11:58:38.875Z,2.00
2022-09-21T12:01:42.280Z,2.00
2022-09-21T12:04:36.107Z,1.90
2022-09-21T12:07:11.027Z,1.90
2022-09-21T12:09:59.810Z,2.10
2022-09-21T12:12:26.283Z,1.50
2022-09-21T12:14:57.063Z,1.60
2022-09-21T12:17:49.875Z,1.67
2022-09-21T12:20:25.494Z,1.40
2022-09-21T12:23:01.136Z,1.60
2022-09-21T12:25:32.847Z,1.37
2022-09-21T12:28:12.423Z,1.33
2022-09-21T12:30:42.026Z,1.20
2022-09-21T12:33:16.299Z,1.60
2022-09-21T12:38:30.414Z,1.30
2022-09-21T12:41:16.918Z,1.47
2022-09-21T12:43:49.558Z,1.67
2022-09-21T12:46:36.914Z,1.33
2022-09-21T12:49:17.634Z,2.07
2022-09-21T12:51:49.812Z,1.50
2022-09-21T12:54:37.828Z,1.20
2022-09-21T12:57:59.088Z,1.43
2022-09-21T13:00:23.987Z,1.40
2022-09-21T13:03:18.203Z,1.50
2022-09-21T13:06:19.668Z,1.20
2022-09-21T13:08:47.023Z,1.30
2022-09-21T13:11:14.238Z,1.30
2022-09-21T13:14:02.750Z,1.27
2022-09-21T13:16:30.360Z,1.20
2022-09-21T13:19:00.213Z,2.00
2022-09-21T13:21:31.967Z,1.47
2022-09-21T13:24:05.274Z,2.00
2022-09-21T13:26:42.776Z,1.23
2022-09-21T13:29:22.091Z,1.53
2022-09-21T13:31:58.855Z,1.93
2022-09-21T13:34:35.492Z,1.40
2022-09-21T13:37:11.189Z,1.40
2022-09-21T13:39:44.436Z,1.17
2022-09-21T13:42:29.706Z,1.30
2022-09-21T13:44:58.005Z,1.30
2022-09-21T13:47:32.601Z,1.10
2022-09-21T13:50:03.258Z,1.33
2022-09-21T13:52:45.486Z,1.30
2022-09-21T13:55:21.173Z,1.13
2022-09-21T13:57:50.683Z,1.50
2022-09-21T14:00:17.300Z,1.23
2022-09-21T14:02:47.142Z,1.00
2022-09-21T14:05:39.251Z,1.40
2022-09-21T14:08:17.914Z,1.10
2022-09-21T14:10:56.771Z,1.07
2022-09-21T14:13:26.803Z,1.00
2022-09-21T14:15:53.337Z,1.63
2022-09-21T14:18:22.477Z,1.40
2022-09-21T14:21:08.517Z,1.10
2022-09-21T14:23:37.273Z,1.03
2022-09-21T14:26:41.283Z,1.00
2022-09-21T14:29:31.384Z,1.03
2022-09-21T14:32:00.788Z,1.17
2022-09-21T14:34:32.061Z,1.30
2022-09-21T14:36:59.770Z,1.57
2022-09-21T14:39:37.616Z,0.90
2022-09-21T14:42:12.429Z,0.90
2022-09-21T14:44:40.038Z,1.00
2022-09-21T14:47:15.359Z,1.00
2022-09-21T14:50:29.945Z,1.77
2022-09-21T14:53:09.427Z,1.20
2022-09-21T14:56:11.833Z,1.30
2022-09-21T14:58:57.222Z,1.03
2022-09-21T15:01:42.126Z,1.00
2022-09-21T15:04:31.459Z,1.03
2022-09-21T15:07:43.530Z,1.17
2022-09-21T15:10:51.807Z,1.00
2022-09-21T15:13:32.462Z,1.00
2022-09-21T15:16:25.741Z,0.80
2022-09-21T15:19:05.119Z,1.10
2022-09-21T15:21:32.891Z,1.03
2022-09-21T15:24:01.134Z,1.47
2022-09-21T15:26:33.429Z,0.90
2022-09-21T15:29:09.642Z,1.17
2022-09-21T15:31:40.844Z,1.03
2022-09-21T15:34:11.158Z,1.43
2022-09-21T15:36:40.063Z,1.13
2022-09-21T15:39:18.372Z,0.93
2022-09-21T15:41:47.537Z,0.90
2022-09-21T15:44:26.378Z,1.00
2022-09-21T15:46:57.939Z,1.10
2022-09-21T15:49:24.937Z,1.50
2022-09-21T15:51:58.659Z,1.20
2022-09-21T15:54:34.724Z,1.13
2022-09-21T15:57:08.470Z,1.00
2022-09-21T15:59:35.526Z,1.23
2022-09-21T16:02:12.488Z,1.07
2022-09-21T16:04:51.840Z,1.00
2022-09-21T16:07:35.991Z,1.30
2022-09-21T16:10:04.759Z,1.00
2022-09-21T16:12:40.377Z,1.00
2022-09-21T16:15:28.261Z,1.27
2022-09-21T16:18:01.582Z,1.50
2022-09-21T16:21:00.161Z,1.63
2022-09-21T16:23:29.969Z,1.40
2022-09-21T16:26:01.200Z,1.40
2022-09-21T16:28:41.109Z,1.40
2022-09-21T16:31:29.813Z,1.60
2022-09-21T16:34:01.595Z,1.13
2022-09-21T16:36:34.090Z,1.63
2022-09-21T16:39:05.977Z,1.40
2022-09-21T16:41:38.713Z,1.67
2022-09-21T16:44:05.260Z,1.70
2022-09-21T16:46:32.281Z,2.20
2022-09-21T16:49:00.660Z,4.40
2022-09-21T16:51:28.458Z,2.70
2022-09-21T16:53:56.587Z,1.90
2022-09-21T16:56:23.330Z,1.90
2022-09-21T16:58:50.039Z,2.63
2022-09-21T17:01:21.804Z,2.70
2022-09-21T17:03:48.618Z,2.47
2022-09-21T17:06:20.200Z,1.73
2022-09-21T17:08:48.228Z,1.70
2022-09-21T17:11:22.155Z,2.13
2022-09-21T17:13:52.213Z,1.83
2022-09-21T17:16:20.114Z,2.07
2022-09-21T17:18:49.596Z,2.00
2022-09-21T17:21:16.701Z,1.50
2022-09-21T17:23:43.313Z,2.27
2022-09-21T17:26:15.834Z,1.60
2022-09-21T17:28:42.702Z,1.70
2022-09-21T17:31:11.913Z,1.93
2022-09-21T17:33:38.866Z,3.73
2022-09-21T17:36:07.806Z,5.80
2022-09-21T17:38:35.409Z,10.13
2022-09-21T17:41:09.997Z,8.83
2022-09-21T17:43:44.000Z,15.63
2022-09-21T17:46:29.708Z,5.93
2022-09-21T17:48:56.448Z,2.00
2022-09-21T17:51:41.600Z,2.27
2022-09-21T17:54:08.501Z,3.97
2022-09-21T17:56:44.271Z,3.50
2022-09-21T17:59:37.646Z,4.50
2022-09-21T18:02:22.620Z,5.10
2022-09-21T18:04:50.643Z,7.40
2022-09-21T18:07:19.007Z,10.53
2022-09-21T18:09:45.862Z,8.30
2022-09-21T18:12:48.553Z,4.20
2022-09-21T18:15:15.640Z,5.53
2022-09-21T18:17:58.160Z,3.97
2022-09-21T18:20:39.378Z,4.27
2022-09-21T18:23:17.692Z,4.23
2022-09-21T18:25:48.099Z,4.50
2022-09-21T18:28:44.048Z,10.17
2022-09-21T18:31:19.725Z,21.10
2022-09-21T18:34:02.504Z,30.30
2022-09-21T18:36:37.303Z,21.50
2022-09-21T18:39:34.372Z,18.57
2022-09-21T18:42:28.962Z,22.43
2022-09-21T18:45:22.918Z,30.00
2022-09-21T18:47:59.344Z,39.17
2022-09-21T18:50:45.132Z,26.80
2022-09-21T18:53:18.245Z,24.60
2022-09-21T18:55:45.141Z,19.03
2022-09-21T18:58:12.199Z,19.30
2022-09-21T19:00:49.921Z,23.80
2022-09-21T19:03:18.459Z,19.97
2022-09-21T19:06:05.436Z,17.60
2022-09-21T19:08:44.275Z,14.53
2022-09-21T19:11:49.693Z,12.97
2022-09-21T19:14:50.507Z,12.43
2022-09-21T19:17:20.101Z,14.23
2022-09-21T19:20:24.384Z,13.17
2022-09-21T19:23:15.009Z,10.43
2022-09-21T19:25:49.343Z,11.83
2022-09-21T19:28:40.953Z,10.50
2022-09-21T19:31:13.544Z,9.00
2022-09-21T19:33:55.688Z,7.73
2022-09-21T19:36:24.267Z,7.83
2022-09-21T19:38:51.191Z,7.37
2022-09-21T19:41:37.564Z,7.97
2022-09-21T19:44:16.357Z,7.50
2022-09-21T19:46:57.226Z,7.20
2022-09-21T19:49:24.470Z,7.20
2022-09-21T19:51:53.421Z,10.30
2022-09-21T19:54:43.544Z,10.40
2022-09-21T19:57:32.640Z,8.90
2022-09-21T19:59:59.918Z,11.70
2022-09-21T20:02:32.511Z,11.53
2022-09-21T20:05:14.667Z,10.03
2022-09-21T20:08:04.715Z,9.00
2022-09-21T20:10:37.231Z,8.70
2022-09-21T20:13:21.729Z,7.67
2022-09-21T20:15:52.381Z,7.33
2022-09-21T20:18:53.238Z,8.70
2022-09-21T20:21:22.239Z,7.33
2022-09-21T20:23:54.721Z,5.90
2022-09-21T20:26:25.038Z,5.40
2022-09-21T20:28:52.491Z,6.70
2022-09-21T20:31:20.979Z,8.67
2022-09-21T20:33:47.721Z,10.47
2022-09-21T20:36:15.202Z,9.40
2022-09-21T20:38:42.301Z,11.60
2022-09-21T20:41:11.908Z,10.37
2022-09-21T20:43:38.908Z,10.90
2022-09-21T20:46:05.565Z,10.70
2022-09-21T20:48:32.340Z,11.47
2022-09-21T20:51:01.507Z,13.20
2022-09-21T20:53:28.154Z,9.77
2022-09-21T20:55:56.753Z,9.13
2022-09-21T20:58:24.624Z,8.13
2022-09-21T21:00:54.082Z,8.80
2022-09-21T21:03:24.703Z,8.23
2022-09-21T21:05:51.275Z,9.53
2022-09-21T21:08:17.736Z,10.17
2022-09-21T21:10:46.565Z,10.57
2022-09-21T21:13:13.129Z,10.80
2022-09-21T21:15:39.830Z,10.60
2022-09-21T21:18:10.021Z,9.53
2022-09-21T21:20:37.904Z,8.90
2022-09-21T21:23:07.922Z,8.60
2022-09-21T21:25:34.949Z,10.80
2022-09-21T21:28:02.489Z,9.47
2022-09-21T21:30:29.384Z,9.20
2022-09-21T21:32:56.339Z,9.57
2022-09-21T21:35:22.931Z,7.90
2022-09-21T21:37:49.652Z,6.53
2022-09-21T21:40:16.338Z,6.80
2022-09-21T21:42:42.903Z,7.27
2022-09-21T21:45:10.030Z,7.37
2022-09-21T21:47:40.904Z,7.40
2022-09-21T21:50:09.218Z,8.30
2022-09-21T21:52:35.949Z,8.90
2022-09-21T21:55:02.683Z,8.70
2022-09-21T21:57:29.426Z,8.33
2022-09-21T21:59:55.887Z,8.97
2022-09-21T22:02:22.732Z,8.10
2022-09-21T22:04:49.276Z,8.50
2022-09-21T22:07:16.020Z,8.53
2022-09-21T22:09:42.517Z,9.87
2022-09-21T22:12:09.906Z,10.33
2022-09-21T22:14:36.731Z,9.63
2022-09-21T22:17:06.245Z,9.43
2022-09-21T22:19:33.016Z,11.13
2022-09-21T22:21:59.555Z,7.97
2022-09-21T22:24:26.073Z,8.43
2022-09-21T22:26:52.564Z,8.57
2022-09-21T22:29:19.021Z,8.27
2022-09-21T22:31:48.457Z,7.97
2022-09-21T22:34:15.638Z,7.40
2022-09-21T22:36:43.725Z,8.07
2022-09-21T22:39:11.117Z,7.53
2022-09-21T22:41:39.297Z,8.50
2022-09-21T22:44:06.752Z,7.93
2022-09-21T22:46:33.810Z,7.20
2022-09-21T22:49:00.737Z,8.20
2022-09-21T22:51:28.247Z,6.40
2022-09-21T22:53:54.773Z,6.93
2022-09-21T22:56:26.963Z,7.20
2022-09-21T22:58:55.790Z,7.07
2022-09-21T23:01:29.883Z,6.87
2022-09-21T23:03:59.477Z,7.00
2022-09-21T23:06:33.615Z,6.60
2022-09-21T23:09:02.566Z,7.10
2022-09-21T23:11:34.447Z,6.73
2022-09-21T23:14:01.130Z,6.43
2022-09-21T23:16:29.357Z,7.83
2022-09-21T23:18:56.616Z,6.90
2022-09-21T23:21:25.677Z,7.10
2022-09-21T23:23:59.643Z,6.63
2022-09-21T23:26:27.300Z,6.97
2022-09-21T23:28:56.253Z,6.03
2022-09-21T23:31:23.636Z,6.87
2022-09-21T23:33:51.683Z,7.20
2022-09-21T23:36:21.128Z,7.50
2022-09-21T23:38:48.464Z,6.57
2022-09-21T23:41:20.537Z,6.93
2022-09-21T23:43:47.530Z,7.90
2022-09-21T23:46:19.295Z,6.10
2022-09-21T23:48:47.435Z,7.10
2022-09-21T23:51:14.151Z,7.57
2022-09-21T23:53:41.947Z,7.50
2022-09-21T23:56:09.527Z,7.97
2022-09-21T23:58:36.183Z,7.70
